Time;durP1;ratioP1;P1;durP2;ratioP2;P2;SDS_P1;SDS_P2;PMS_P1;PMS_P2;Temp;Humidity;BMP_temperature;BMP_pressure;BME280_temperature;BME280_humidity;BME280_pressure;Samples;Min_cycle;Max_cycle;Signal;HPM_P1;HPM_P2
2021/09/03 00:02:01;;;;;;;;;;;;;;;;;;5114970;28;19924;-71
2021/09/03 00:04:27;;;;;;;;;;;;;;;;;;5115661;28;19924;-71
2021/09/03 00:06:54;;;;;;;;;;;;;;;;;;5115104;28;19931;-71
2021/09/03 00:09:20;;;;;;;;;;;;;;;;;;5115160;28;19924;-71
2021/09/03 00:11:46;;;;;;;;;;;;;;;;;;5115282;28;19923;-71
2021/09/03 00:14:12;;;;;;;;;;;;;;;;;;5115231;28;19924;-72
2021/09/03 00:16:39;;;;;;;;;;;;;;;;;;5115032;28;19924;-72
2021/09/03 00:19:05;;;;;;;;;;;;;;;;;;5114879;28;19927;-72
2021/09/03 00:21:31;;;;;;;;;;;;;;;;;;5115323;28;20271;-72
2021/09/03 00:23:58;;;;;;;;;;;;;;;;;;5114472;28;19923;-72
2021/09/03 00:26:24;;;;;;;;;;;;;;;;;;5115121;28;19924;-72
2021/09/03 00:28:50;;;;;;;;;;;;;;;;;;5114791;28;20389;-72
2021/09/03 00:31:16;;;;;;;;;;;;;;;;;;5114728;28;19924;-71
2021/09/03 00:33:43;;;;;;;;;;;;;;;;;;5114598;28;20393;-71
2021/09/03 00:36:09;;;;;;;;;;;;;;;;;;5114350;28;19931;-72
2021/09/03 00:38:35;;;;;;;;;;;;;;;;;;5113790;28;19935;-71
2021/09/03 00:41:02;;;;;;;;;;;;;;;;;;5114828;28;20373;-72
2021/09/03 00:43:28;;;;;;;;;;;;;;;;;;5114422;28;19931;-72
2021/09/03 00:45:54;;;;;;;;;;;;;;;;;;5114571;28;20005;-72
2021/09/03 00:48:21;;;;;;;;;;;;;;;;;;5114461;28;20293;-71
2021/09/03 00:50:47;;;;;;;;;;;;;;;;;;5114345;28;19924;-71
2021/09/03 00:53:13;;;;;;;;;;;;;;;;;;5114120;28;19931;-71
2021/09/03 00:55:40;;;;;;;;;;;;;;;;;;5114753;28;19924;-72
2021/09/03 00:58:06;;;;;;;;;;;;;;;;;;5113872;28;19934;-71
2021/09/03 01:00:32;;;;;;;;;;;;;;;;;;5114477;28;19924;-71
2021/09/03 01:02:58;;;;;;;;;;;;;;;;;;5113930;28;19924;-71
2021/09/03 01:05:25;;;;;;;;;;;;;;;;;;5114617;28;19931;-71
2021/09/03 01:07:51;;;;;;;;;;;;;;;;;;5114027;28;20370;-71
2021/09/03 01:10:17;;;;;;;;;;;;;;;;;;5114146;28;19924;-71
2021/09/03 01:12:44;;;;;;;;;;;;;;;;;;5114180;28;19946;-71
2021/09/03 01:15:10;;;;;;;;;;;;;;;;;;5113570;28;19924;-71
2021/09/03 01:17:37;;;;;;;;;;;;;;;;;;5114149;28;19928;-71
2021/09/03 01:20:03;;;;;;;;;;;;;;;;;;5113770;28;19931;-71
2021/09/03 01:22:29;;;;;;;;;;;;;;;;;;5113832;28;19931;-71
2021/09/03 01:24:56;;;;;;;;;;;;;;;;;;5113387;28;20304;-71
2021/09/03 01:27:22;;;;;;;;;;;;;;;;;;5113796;28;19924;-71
2021/09/03 01:29:48;;;;;;;;;;;;;;;;;;5113987;28;19924;-71
2021/09/03 01:32:15;;;;;;;;;;;;;;;;;;5113365;28;19939;-71
2021/09/03 01:34:41;;;;;;;;;;;;;;;;;;5113508;28;19924;-71
2021/09/03 01:37:07;;;;;;;;;;;;;;;;;;5113562;28;19934;-71
2021/09/03 01:39:34;;;;;;;;;;;;;;;;;;5113458;28;19924;-71
2021/09/03 01:42:00;;;;;;;;;;;;;;;;;;5113327;28;19924;-71
2021/09/03 01:44:26;;;;;;;;;;;;;;;;;;5113360;28;20408;-71
2021/09/03 01:46:52;;;;;;;;;;;;;;;;;;5113399;28;19924;-71
2021/09/03 01:49:19;;;;;;;;;;;;;;;;;;5112854;28;19923;-71
2021/09/03 01:51:45;;;;;;;;;;;;;;;;;;5113238;28;19924;-72
2021/09/03 01:54:11;;;;;;;;;;;;;;;;;;5113289;28;19924;-71
2021/09/03 01:56:38;;;;;;;;;;;;;;;;;;5113161;28;20408;-71
2021/09/03 01:59:04;;;;;;;;;;;;;;;;;;5113124;28;19924;-72
2021/09/03 02:01:30;;;;;;;;;;;;;;;;;;5113178;28;20370;-71
2021/09/03 02:03:56;;;;;;;;;;;;;;;;;;5112863;28;19927;-71
2021/09/03 02:06:23;;;;;;;;;;;;;;;;;;5113313;28;20044;-72
2021/09/03 02:08:49;;;;;;;;;;;;;;;;;;5113041;28;19923;-71
2021/09/03 02:11:15;;;;;;;;;;;;;;;;;;5112982;28;19923;-71
2021/09/03 02:13:42;;;;;;;;;;;;;;;;;;5112801;28;19931;-71
2021/09/03 02:16:08;;;;;;;;;;;;;;;;;;5113041;28;19931;-71
2021/09/03 02:18:34;;;;;;;;;;;;;;;;;;5113253;28;20040;-71
2021/09/03 02:21:00;;;;;;;;;;;;;;;;;;5112679;28;19924;-71
2021/09/03 02:23:27;;;;;;;;;;;;;;;;;;5112794;28;19927;-71
2021/09/03 02:25:53;;;;;;;;;;;;;;;;;;5112792;28;20267;-71
2021/09/03 02:28:19;;;;;;;;;;;;;;;;;;5112822;28;19924;-71
2021/09/03 02:30:46;;;;;;;;;;;;;;;;;;5113190;28;19923;-71
2021/09/03 02:33:12;;;;;;;;;;;;;;;;;;5112489;28;20362;-71
2021/09/03 02:35:38;;;;;;;;;;;;;;;;;;5112779;28;19924;-71
2021/09/03 02:38:04;;;;;;;;;;;;;;;;;;5112842;28;20411;-71
2021/09/03 02:40:31;;;;;;;;;;;;;;;;;;5112743;28;19935;-71
2021/09/03 02:42:57;;;;;;;;;;;;;;;;;;5112671;28;19951;-70
2021/09/03 02:45:23;;;;;;;;;;;;;;;;;;5112764;28;19931;-71
2021/09/03 02:47:50;;;;;;;;;;;;;;;;;;5113015;28;19923;-71
2021/09/03 02:50:16;;;;;;;;;;;;;;;;;;5112394;28;19931;-71
2021/09/03 02:52:42;;;;;;;;;;;;;;;;;;5112554;28;19923;-71
2021/09/03 02:55:09;;;;;;;;;;;;;;;;;;5112582;28;19923;-71
2021/09/03 02:57:35;;;;;;;;;;;;;;;;;;5112517;28;20401;-71
2021/09/03 03:00:01;;;;;;;;;;;;;;;;;;5112324;28;19924;-71
2021/09/03 03:02:27;;;;;;;;;;;;;;;;;;5115553;28;19931;-71
2021/09/03 03:04:54;;;;;;;;;;;;;;;;;;5116370;28;19931;-71
2021/09/03 03:07:20;;;;;;;;;;;;;;;;;;5116526;28;19930;-71
2021/09/03 03:09:46;;;;;;;;;;;;;;;;;;5116710;28;19931;-71
2021/09/03 03:12:13;;;;;;;;;;;;;;;;;;5115913;28;20394;-71
2021/09/03 03:14:39;;;;;;;;;;;;;;;;;;5116638;28;19923;-71
2021/09/03 03:17:05;;;;;;;;;;;;;;;;;;5116311;28;19924;-72
2021/09/03 03:19:31;;;;;;;;;;;;;;;;;;5116081;28;20286;-71
2021/09/03 03:21:58;;;;;;;;;;;;;;;;;;5115712;28;19928;-71
2021/09/03 03:24:24;;;;;;;;;;;;;;;;;;5116379;28;19924;-72
2021/09/03 03:26:50;;;;;;;;;;;;;;;;;;5116255;28;19946;-72
2021/09/03 03:29:17;;;;;;;;;;;;;;;;;;5115744;28;19924;-72
2021/09/03 03:31:45;;;;;;;;;;;;;;;;;;5115180;28;20205;-72
2021/09/03 03:34:11;;;;;;;;;;;;;;;;;;5116209;28;19924;-72
2021/09/03 03:36:38;;;;;;;;;;;;;;;;;;5115891;28;20266;-71
2021/09/03 03:39:04;;;;;;;;;;;;;;;;;;5115729;28;19924;-72
2021/09/03 03:41:30;;;;;;;;;;;;;;;;;;5116005;28;19924;-72
2021/09/03 03:43:57;;;;;;;;;;;;;;;;;;5115592;28;20495;-72
2021/09/03 03:46:23;;;;;;;;;;;;;;;;;;5115956;28;19923;-72
2021/09/03 03:48:49;;;;;;;;;;;;;;;;;;5115745;28;19923;-71
2021/09/03 03:51:15;;;;;;;;;;;;;;;;;;5115270;28;20411;-71
2021/09/03 03:53:42;;;;;;;;;;;;;;;;;;5115431;28;20386;-72
2021/09/03 03:56:08;;;;;;;;;;;;;;;;;;5115140;28;19928;-72
2021/09/03 03:58:34;;;;;;;;;;;;;;;;;;5115608;28;19923;-71
2021/09/03 04:01:01;;;;;;;;;;;;;;;;;;5115027;28;20398;-71
2021/09/03 04:03:27;;;;;;;;;;;;;;;;;;5115397;28;20400;-71
2021/09/03 04:05:53;;;;;;;;;;;;;;;;;;5115519;28;19924;-71
2021/09/03 04:08:20;;;;;;;;;;;;;;;;;;5115233;28;19923;-71
2021/09/03 04:10:46;;;;;;;;;;;;;;;;;;5115015;28;19924;-71
2021/09/03 04:13:12;;;;;;;;;;;;;;;;;;5114587;28;19923;-71
2021/09/03 04:15:38;;;;;;;;;;;;;;;;;;5115517;28;19934;-71
2021/09/03 04:18:05;;;;;;;;;;;;;;;;;;5114748;28;19931;-71
2021/09/03 04:20:31;;;;;;;;;;;;;;;;;;5115171;28;19924;-71
2021/09/03 04:22:57;;;;;;;;;;;;;;;;;;5114533;28;20392;-71
2021/09/03 04:25:24;;;;;;;;;;;;;;;;;;5114802;28;19935;-71
2021/09/03 04:27:50;;;;;;;;;;;;;;;;;;5115169;28;19924;-71
2021/09/03 04:30:16;;;;;;;;;;;;;;;;;;5114837;28;19924;-72
2021/09/03 04:32:42;;;;;;;;;;;;;;;;;;5114963;28;19923;-73
2021/09/03 04:35:09;;;;;;;;;;;;;;;;;;5114308;28;20294;-72
2021/09/03 04:37:36;;;;;;;;;;;;;;;;;;5114826;28;19924;-72
2021/09/03 04:40:02;;;;;;;;;;;;;;;;;;5114321;28;19924;-72
2021/09/03 04:42:28;;;;;;;;;;;;;;;;;;5114809;28;19928;-72
2021/09/03 04:44:54;;;;;;;;;;;;;;;;;;5114784;28;19930;-72
2021/09/03 04:47:21;;;;;;;;;;;;;;;;;;5114238;28;19930;-72
2021/09/03 04:49:47;;;;;;;;;;;;;;;;;;5114744;28;19923;-72
2021/09/03 04:52:13;;;;;;;;;;;;;;;;;;5114086;28;20400;-72
2021/09/03 04:54:40;;;;;;;;;;;;;;;;;;5114409;28;19931;-72
2021/09/03 04:57:06;;;;;;;;;;;;;;;;;;5114109;28;19927;-73
2021/09/03 04:59:34;;;;;;;;;;;;;;;;;;5114237;28;19924;-73
2021/09/03 05:02:00;;;;;;;;;;;;;;;;;;5113855;28;19924;-73
2021/09/03 05:04:27;;;;;;;;;;;;;;;;;;5114344;28;19924;-73
2021/09/03 05:06:53;;;;;;;;;;;;;;;;;;5114223;28;19924;-73
2021/09/03 05:09:19;;;;;;;;;;;;;;;;;;5114065;28;19927;-73
2021/09/03 05:11:45;;;;;;;;;;;;;;;;;;5114206;28;19924;-72
2021/09/03 05:14:12;;;;;;;;;;;;;;;;;;5113782;28;19924;-72
2021/09/03 05:16:38;;;;;;;;;;;;;;;;;;5113997;28;19924;-70
2021/09/03 05:19:04;;;;;;;;;;;;;;;;;;5113829;28;19979;-69
2021/09/03 05:21:31;;;;;;;;;;;;;;;;;;5113500;28;19924;-70
2021/09/03 05:23:57;;;;;;;;;;;;;;;;;;5112586;28;19924;-71
2021/09/03 05:26:23;;;;;;;;;;;;;;;;;;5113734;28;20420;-71
2021/09/03 05:28:49;;;;;;;;;;;;;;;;;;5113925;28;19927;-71
2021/09/03 05:31:16;;;;;;;;;;;;;;;;;;5113832;28;19934;-71
2021/09/03 05:33:42;;;;;;;;;;;;;;;;;;5113479;28;19923;-71
2021/09/03 05:36:08;;;;;;;;;;;;;;;;;;5113569;28;19923;-69
2021/09/03 05:38:35;;;;;;;;;;;;;;;;;;5113449;28;20408;-69
2021/09/03 05:41:01;;;;;;;;;;;;;;;;;;5113502;28;19924;-70
2021/09/03 05:43:27;;;;;;;;;;;;;;;;;;5113706;28;19923;-70
2021/09/03 05:45:53;;;;;;;;;;;;;;;;;;5113269;28;19924;-69
2021/09/03 05:48:20;;;;;;;;;;;;;;;;;;5113317;28;19935;-72
2021/09/03 05:50:46;;;;;;;;;;;;;;;;;;5113366;28;19923;-71
2021/09/03 05:53:12;;;;;;;;;;;;;;;;;;5112905;28;19924;-71
2021/09/03 05:55:39;;;;;;;;;;;;;;;;;;5113549;28;19930;-71
2021/09/03 05:58:05;;;;;;;;;;;;;;;;;;5112786;28;20393;-71
2021/09/03 06:00:32;;;;;;;;;;;;;;;;;;5113567;28;19923;-71
2021/09/03 06:02:59;;;;;;;;;;;;;;;;;;5112852;28;19977;-71
2021/09/03 06:05:25;;;;;;;;;;;;;;;;;;5112955;28;20398;-71
2021/09/03 06:07:51;;;;;;;;;;;;;;;;;;5113043;28;19930;-71
2021/09/03 06:10:18;;;;;;;;;;;;;;;;;;5113121;28;19924;-72
2021/09/03 06:12:44;;;;;;;;;;;;;;;;;;5112807;28;20366;-72
2021/09/03 06:15:10;;;;;;;;;;;;;;;;;;5112993;28;19934;-71
2021/09/03 06:17:36;;;;;;;;;;;;;;;;;;5113213;28;19931;-72
2021/09/03 06:20:03;;;;;;;;;;;;;;;;;;5112866;28;19924;-71
2021/09/03 06:22:29;;;;;;;;;;;;;;;;;;5112624;28;19924;-71
2021/09/03 06:24:55;;;;;;;;;;;;;;;;;;5112860;28;19931;-72
2021/09/03 06:27:22;;;;;;;;;;;;;;;;;;5112844;28;19923;-71
2021/09/03 06:29:48;;;;;;;;;;;;;;;;;;5112841;28;19930;-72
2021/09/03 06:32:14;;;;;;;;;;;;;;;;;;5112752;28;19958;-71
2021/09/03 06:34:41;;;;;;;;;;;;;;;;;;5112800;28;19928;-70
2021/09/03 06:37:07;;;;;;;;;;;;;;;;;;5116833;28;19931;-69
2021/09/03 06:39:33;;;;;;;;;;;;;;;;;;5117009;28;20297;-70
2021/09/03 06:41:59;;;;;;;;;;;;;;;;;;5116937;28;19924;-69
2021/09/03 06:44:26;;;;;;;;;;;;;;;;;;5117355;28;20290;-70
2021/09/03 06:46:52;;;;;;;;;;;;;;;;;;5116831;28;19924;-70
2021/09/03 06:49:18;;;;;;;;;;;;;;;;;;5116987;28;20024;-70
2021/09/03 06:51:45;;;;;;;;;;;;;;;;;;5116666;28;20374;-70
2021/09/03 06:54:11;;;;;;;;;;;;;;;;;;5116623;28;19927;-70
2021/09/03 06:56:37;;;;;;;;;;;;;;;;;;5116905;28;19947;-70
2021/09/03 06:59:03;;;;;;;;;;;;;;;;;;5116227;28;19924;-69
2021/09/03 07:01:30;;;;;;;;;;;;;;;;;;5116850;28;19924;-70
2021/09/03 07:03:56;;;;;;;;;;;;;;;;;;5116345;28;20369;-72
2021/09/03 07:06:22;;;;;;;;;;;;;;;;;;5116696;28;19930;-70
2021/09/03 07:08:49;;;;;;;;;;;;;;;;;;5116386;28;20301;-70
2021/09/03 07:11:15;;;;;;;;;;;;;;;;;;5116152;28;19931;-70
2021/09/03 07:13:41;;;;;;;;;;;;;;;;;;5116582;28;19950;-72
2021/09/03 07:16:07;;;;;;;;;;;;;;;;;;5116517;28;20382;-71
2021/09/03 07:18:34;;;;;;;;;;;;;;;;;;5116286;28;19931;-70
2021/09/03 07:21:00;;;;;;;;;;;;;;;;;;5115935;28;19923;-70
2021/09/03 07:23:26;;;;;;;;;;;;;;;;;;5116055;28;19931;-69
2021/09/03 07:25:53;;;;;;;;;;;;;;;;;;5116415;28;19923;-69
2021/09/03 07:28:19;;;;;;;;;;;;;;;;;;5116121;28;19924;-71
2021/09/03 07:30:45;;;;;;;;;;;;;;;;;;5115895;28;19923;-70
2021/09/03 07:33:12;;;;;;;;;;;;;;;;;;5115814;28;19934;-71
2021/09/03 07:35:38;;;;;;;;;;;;;;;;;;5116408;28;19927;-72
2021/09/03 07:38:04;;;;;;;;;;;;;;;;;;5115865;28;19931;-71
2021/09/03 07:40:32;;;;;;;;;;;;;;;;;;5116259;28;19935;-72
2021/09/03 07:43:05;;;;;;;;;;;;;;;;;;5115452;28;19923;-71
2021/09/03 07:45:31;;;;;;;;;;;;;;;;;;5116122;28;19928;-71
2021/09/03 07:47:58;;;;;;;;;;;;;;;;;;5114868;28;20386;-72
2021/09/03 07:50:24;;;;;;;;;;;;;;;;;;5115777;28;19931;-71
2021/09/03 07:52:50;;;;;;;;;;;;;;;;;;5115990;28;19946;-71
2021/09/03 07:55:17;;;;;;;;;;;;;;;;;;5115172;28;19928;-72
2021/09/03 07:57:43;;;;;;;;;;;;;;;;;;5115709;28;19924;-71
2021/09/03 08:00:09;;;;;;;;;;;;;;;;;;5115200;28;20294;-71
2021/09/03 08:02:35;;;;;;;;;;;;;;;;;;5115310;28;19930;-70
2021/09/03 08:05:02;;;;;;;;;;;;;;;;;;5115329;28;19928;-71
2021/09/03 08:07:30;;;;;;;;;;;;;;;;;;5115191;28;20293;-70
2021/09/03 08:09:56;;;;;;;;;;;;;;;;;;5114979;28;19969;-71
2021/09/03 08:12:23;;;;;;;;;;;;;;;;;;5115469;28;19931;-70
2021/09/03 08:14:49;;;;;;;;;;;;;;;;;;5115253;28;20292;-72
2021/09/03 08:17:15;;;;;;;;;;;;;;;;;;5114880;28;19928;-71
2021/09/03 08:19:42;;;;;;;;;;;;;;;;;;5115322;28;19950;-71
2021/09/03 08:22:08;;;;;;;;;;;;;;;;;;5114682;28;19935;-71
2021/09/03 08:24:34;;;;;;;;;;;;;;;;;;5114862;28;20034;-72
2021/09/03 08:27:01;;;;;;;;;;;;;;;;;;5114882;28;19924;-72
2021/09/03 08:29:27;;;;;;;;;;;;;;;;;;5114815;28;19924;-71
2021/09/03 08:31:54;;;;;;;;;;;;;;;;;;5115090;28;19973;-71
2021/09/03 08:34:20;;;;;;;;;;;;;;;;;;5114532;28;20396;-71
2021/09/03 08:36:46;;;;;;;;;;;;;;;;;;5115188;28;19924;-72
2021/09/03 08:39:13;;;;;;;;;;;;;;;;;;5114573;28;19974;-71
2021/09/03 08:41:39;;;;;;;;;;;;;;;;;;5115132;28;19924;-72
2021/09/03 08:44:05;;;;;;;;;;;;;;;;;;5114447;28;20370;-72
2021/09/03 08:46:32;;;;;;;;;;;;;;;;;;5114599;28;20008;-72
2021/09/03 08:48:58;;;;;;;;;;;;;;;;;;5114451;28;20023;-72
2021/09/03 08:51:24;;;;;;;;;;;;;;;;;;5114868;28;19924;-70
2021/09/03 08:53:51;;;;;;;;;;;;;;;;;;5114363;28;19924;-69
2021/09/03 08:56:17;;;;;;;;;;;;;;;;;;5114687;28;19924;-69
2021/09/03 08:58:43;;;;;;;;;;;;;;;;;;5113452;28;20297;-69
2021/09/03 09:01:09;;;;;;;;;;;;;;;;;;5114014;28;19924;-69
2021/09/03 09:03:36;;;;;;;;;;;;;;;;;;5114580;28;19923;-70
2021/09/03 09:06:02;;;;;;;;;;;;;;;;;;5113919;28;19935;-70
2021/09/03 09:08:28;;;;;;;;;;;;;;;;;;5114590;28;19930;-72
2021/09/03 09:10:55;;;;;;;;;;;;;;;;;;5114227;28;20017;-72
2021/09/03 09:13:21;;;;;;;;;;;;;;;;;;5114096;28;19973;-72
2021/09/03 09:15:47;;;;;;;;;;;;;;;;;;5114233;28;19953;-72
2021/09/03 09:18:14;;;;;;;;;;;;;;;;;;5113522;28;19923;-71
2021/09/03 09:20:40;;;;;;;;;;;;;;;;;;5114166;28;19923;-70
2021/09/03 09:23:07;;;;;;;;;;;;;;;;;;5113450;28;19930;-71
2021/09/03 09:25:34;;;;;;;;;;;;;;;;;;5113649;28;20378;-71
2021/09/03 09:28:00;;;;;;;;;;;;;;;;;;5113603;28;19924;-71
2021/09/03 09:30:26;;;;;;;;;;;;;;;;;;5113921;28;19923;-70
2021/09/03 09:32:52;;;;;;;;;;;;;;;;;;5113649;28;20289;-70
2021/09/03 09:35:19;;;;;;;;;;;;;;;;;;5113366;28;19930;-70
2021/09/03 09:37:45;;;;;;;;;;;;;;;;;;5113491;28;19930;-70
2021/09/03 09:40:11;;;;;;;;;;;;;;;;;;5113457;28;19923;-71
2021/09/03 09:42:38;;;;;;;;;;;;;;;;;;5113260;28;19940;-71
2021/09/03 09:45:04;;;;;;;;;;;;;;;;;;5113417;28;19923;-71
2021/09/03 09:47:30;;;;;;;;;;;;;;;;;;5113589;28;19923;-71
2021/09/03 09:49:57;;;;;;;;;;;;;;;;;;5113112;28;19924;-71
2021/09/03 09:52:23;;;;;;;;;;;;;;;;;;5113553;28;19934;-71
2021/09/03 09:54:49;;;;;;;;;;;;;;;;;;5113412;28;19947;-71
2021/09/03 09:57:15;;;;;;;;;;;;;;;;;;5112819;28;20452;-71
2021/09/03 09:59:42;;;;;;;;;;;;;;;;;;5113218;28;19924;-71
2021/09/03 10:02:08;;;;;;;;;;;;;;;;;;5113175;28;19928;-71
2021/09/03 10:04:34;;;;;;;;;;;;;;;;;;5113023;28;20374;-71
2021/09/03 10:07:01;;;;;;;;;;;;;;;;;;5113334;28;19924;-71
2021/09/03 10:09:27;;;;;;;;;;;;;;;;;;5113318;28;20294;-71
2021/09/03 10:11:53;;;;;;;;;;;;;;;;;;5112696;28;19928;-71
2021/09/03 10:14:20;;;;;;;;;;;;;;;;;;5113337;28;19931;-71
2021/09/03 10:16:46;;;;;;;;;;;;;;;;;;5113076;28;20403;-71
2021/09/03 10:19:13;;;;;;;;;;;;;;;;;;5112861;28;19934;-71
2021/09/03 10:21:40;;;;;;;;;;;;;;;;;;5113177;28;19963;-72
2021/09/03 10:24:06;;;;;;;;;;;;;;;;;;5112448;28;19959;-71
2021/09/03 10:26:32;;;;;;;;;;;;;;;;;;5113150;28;20075;-72
2021/09/03 10:28:59;;;;;;;;;;;;;;;;;;5112453;28;19923;-71
2021/09/03 10:31:25;;;;;;;;;;;;;;;;;;5113016;28;19930;-71
2021/09/03 10:33:51;;;;;;;;;;;;;;;;;;5112731;28;20382;-73
2021/09/03 10:36:18;;;;;;;;;;;;;;;;;;5112594;28;19931;-71
2021/09/03 10:38:44;;;;;;;;;;;;;;;;;;5112943;28;19928;-72
2021/09/03 10:41:10;;;;;;;;;;;;;;;;;;5112435;28;20403;-73
2021/09/03 10:43:36;;;;;;;;;;;;;;;;;;5112584;28;19924;-72
2021/09/03 10:46:03;;;;;;;;;;;;;;;;;;5112684;28;19951;-72
2021/09/03 10:48:29;;;;;;;;;;;;;;;;;;5112969;28;20299;-73
2021/09/03 10:50:56;;;;;;;;;;;;;;;;;;5112631;28;19923;-72
2021/09/03 10:53:22;;;;;;;;;;;;;;;;;;5112528;28;19923;-72
2021/09/03 10:55:48;;;;;;;;;;;;;;;;;;5112747;28;19947;-72
2021/09/03 10:58:15;;;;;;;;;;;;;;;;;;5112284;28;19924;-72
2021/09/03 11:00:43;;;;;;;;;;;;;;;;;;5112851;28;19924;-72
2021/09/03 11:03:09;;;;;;;;;;;;;;;;;;5112646;28;19925;-72
2021/09/03 11:05:35;;;;;;;;;;;;;;;;;;5112704;28;19924;-73
2021/09/03 11:08:04;;;;;;;;;;;;;;;;;;5112542;28;19924;-73
2021/09/03 11:10:30;;;;;;;;;;;;;;;;;;5112859;28;19930;-72
2021/09/03 11:12:56;;;;;;;;;;;;;;;;;;5112146;28;19924;-72
2021/09/03 11:15:23;;;;;;;;;;;;;;;;;;5112339;28;20196;-72
2021/09/03 11:17:50;;;;;;;;;;;;;;;;;;5112589;28;19924;-73
2021/09/03 11:20:17;;;;;;;;;;;;;;;;;;5112088;28;19924;-71
2021/09/03 11:22:43;;;;;;;;;;;;;;;;;;5113758;28;19924;-70
2021/09/03 11:25:09;;;;;;;;;;;;;;;;;;5115832;28;19950;-70
2021/09/03 11:27:36;;;;;;;;;;;;;;;;;;5115990;28;19930;-70
2021/09/03 11:30:02;;;;;;;;;;;;;;;;;;5115691;28;19923;-71
2021/09/03 11:32:28;;;;;;;;;;;;;;;;;;5116001;28;19930;-70
2021/09/03 11:34:55;;;;;;;;;;;;;;;;;;5116140;28;19927;-70
2021/09/03 11:37:21;;;;;;;;;;;;;;;;;;5115765;28;19928;-70
2021/09/03 11:39:48;;;;;;;;;;;;;;;;;;5116003;28;20022;-70
2021/09/03 11:42:14;;;;;;;;;;;;;;;;;;5115975;28;19923;-70
2021/09/03 11:44:40;;;;;;;;;;;;;;;;;;5116201;28;20296;-73
2021/09/03 11:47:06;;;;;;;;;;;;;;;;;;5115465;28;19931;-70
2021/09/03 11:49:33;;;;;;;;;;;;;;;;;;5116017;28;19930;-71
2021/09/03 11:51:59;;;;;;;;;;;;;;;;;;5115521;28;19954;-70
2021/09/03 11:54:25;;;;;;;;;;;;;;;;;;5115350;28;19931;-71
2021/09/03 11:56:52;;;;;;;;;;;;;;;;;;5115718;28;19923;-71
2021/09/03 11:59:18;;;;;;;;;;;;;;;;;;5115446;28;19935;-71
2021/09/03 12:01:44;;;;;;;;;;;;;;;;;;5115301;28;19927;-70
2021/09/03 12:04:10;;;;;;;;;;;;;;;;;;5115436;28;19933;-70
2021/09/03 12:06:39;;;;;;;;;;;;;;;;;;5115285;28;20378;-70
2021/09/03 12:09:05;;;;;;;;;;;;;;;;;;5115249;28;19927;-71
2021/09/03 12:11:32;;;;;;;;;;;;;;;;;;5115492;28;19969;-70
2021/09/03 12:13:58;;;;;;;;;;;;;;;;;;5115144;28;19947;-71
2021/09/03 12:16:24;;;;;;;;;;;;;;;;;;5115045;28;19928;-73
2021/09/03 12:18:51;;;;;;;;;;;;;;;;;;5115375;28;19924;-72
2021/09/03 12:21:18;;;;;;;;;;;;;;;;;;5114977;28;19946;-72
2021/09/03 12:23:44;;;;;;;;;;;;;;;;;;5114830;28;19930;-72
2021/09/03 12:26:10;;;;;;;;;;;;;;;;;;5114638;28;19931;-72
2021/09/03 12:28:37;;;;;;;;;;;;;;;;;;5114948;28;19923;-72
2021/09/03 12:31:03;;;;;;;;;;;;;;;;;;5114807;28;20018;-72
2021/09/03 12:33:29;;;;;;;;;;;;;;;;;;5114518;28;19923;-73
2021/09/03 12:35:56;;;;;;;;;;;;;;;;;;5114689;28;19930;-73
2021/09/03 12:38:22;;;;;;;;;;;;;;;;;;5114762;28;20408;-73
2021/09/03 12:40:48;;;;;;;;;;;;;;;;;;5114920;28;19931;-72
2021/09/03 12:43:15;;;;;;;;;;;;;;;;;;5114173;28;20289;-73
2021/09/03 12:45:41;;;;;;;;;;;;;;;;;;5114466;28;19930;-70
2021/09/03 12:48:07;;;;;;;;;;;;;;;;;;5114470;28;19934;-71
2021/09/03 12:50:33;;;;;;;;;;;;;;;;;;5114943;28;19924;-72
2021/09/03 12:53:00;;;;;;;;;;;;;;;;;;5114379;28;19924;-73
2021/09/03 12:55:26;;;;;;;;;;;;;;;;;;5114302;28;19924;-72
2021/09/03 12:57:52;;;;;;;;;;;;;;;;;;5114220;28;19924;-72
2021/09/03 13:00:19;;;;;;;;;;;;;;;;;;5114199;28;19924;-72
2021/09/03 13:02:45;;;;;;;;;;;;;;;;;;5114203;28;19928;-72
2021/09/03 13:05:11;;;;;;;;;;;;;;;;;;5113810;28;19924;-72
2021/09/03 13:07:38;;;;;;;;;;;;;;;;;;5114317;28;19938;-72
2021/09/03 13:10:04;;;;;;;;;;;;;;;;;;5113587;28;20392;-73
2021/09/03 13:12:30;;;;;;;;;;;;;;;;;;5114371;28;19931;-70
2021/09/03 13:14:56;;;;;;;;;;;;;;;;;;5113759;28;19930;-71
2021/09/03 13:17:23;;;;;;;;;;;;;;;;;;5113902;28;20409;-71
2021/09/03 13:19:49;;;;;;;;;;;;;;;;;;5113847;28;19924;-72
2021/09/03 13:22:15;;;;;;;;;;;;;;;;;;5113158;28;20014;-71
2021/09/03 13:24:42;;;;;;;;;;;;;;;;;;5114152;28;19947;-73
2021/09/03 13:27:08;;;;;;;;;;;;;;;;;;5109638;28;19924;-73
2021/09/03 13:29:34;;;;;;;;;;;;;;;;;;5102122;28;20389;-73
2021/09/03 13:32:01;;;;;;;;;;;;;;;;;;5105235;28;19930;-73
2021/09/03 13:34:29;;;;;;;;;;;;;;;;;;5113816;28;19924;-72
2021/09/03 13:36:55;;;;;;;;;;;;;;;;;;5096023;28;19928;-72
2021/09/03 13:39:21;;;;;;;;;;;;;;;;;;5093411;28;19946;-72
2021/09/03 13:41:48;;;;;;;;;;;;;;;;;;5093010;28;19930;-73
2021/09/03 13:44:14;;;;;;;;;;;;;;;;;;5100511;28;20320;-72
2021/09/03 13:46:40;;;;;;;;;;;;;;;;;;5112861;28;19932;-72
2021/09/03 13:49:08;;;;;;;;;;;;;;;;;;5113431;28;19923;-72
2021/09/03 13:51:34;;;;;;;;;;;;;;;;;;5113778;28;19966;-72
2021/09/03 13:54:01;;;;;;;;;;;;;;;;;;5112927;28;19923;-72
2021/09/03 13:56:27;;;;;;;;;;;;;;;;;;5113482;28;20356;-71
2021/09/03 13:58:53;;;;;;;;;;;;;;;;;;5113158;28;19937;-72
2021/09/03 14:01:20;;;;;;;;;;;;;;;;;;5113080;28;19923;-73
2021/09/03 14:03:46;;;;;;;;;;;;;;;;;;5113145;28;20390;-71
2021/09/03 14:06:13;;;;;;;;;;;;;;;;;;5113109;28;19923;-71
2021/09/03 14:08:40;;;;;;;;;;;;;;;;;;5113276;28;19924;-72
2021/09/03 14:11:06;;;;;;;;;;;;;;;;;;5111499;28;20010;-72
2021/09/03 14:13:32;;;;;;;;;;;;;;;;;;5112145;28;20392;-71
2021/09/03 14:15:59;;;;;;;;;;;;;;;;;;5111856;28;19923;-71
2021/09/03 14:18:25;;;;;;;;;;;;;;;;;;5112180;28;19931;-72
2021/09/03 14:20:51;;;;;;;;;;;;;;;;;;5112329;28;19930;-72
2021/09/03 14:23:17;;;;;;;;;;;;;;;;;;5111488;28;20294;-71
2021/09/03 14:25:44;;;;;;;;;;;;;;;;;;5112346;28;19923;-71
2021/09/03 14:28:10;;;;;;;;;;;;;;;;;;5112948;28;19931;-71
2021/09/03 14:30:36;;;;;;;;;;;;;;;;;;5112826;28;19928;-71
2021/09/03 14:33:03;;;;;;;;;;;;;;;;;;5112894;28;19923;-71
2021/09/03 14:35:29;;;;;;;;;;;;;;;;;;5113040;28;19923;-71
2021/09/03 14:37:55;;;;;;;;;;;;;;;;;;5112654;28;19923;-73
2021/09/03 14:40:22;;;;;;;;;;;;;;;;;;5113064;28;19924;-72
2021/09/03 14:42:48;;;;;;;;;;;;;;;;;;5112732;28;20373;-71
2021/09/03 14:45:14;;;;;;;;;;;;;;;;;;5112591;28;19923;-71
2021/09/03 14:47:40;;;;;;;;;;;;;;;;;;5113253;28;19924;-71
2021/09/03 14:50:07;;;;;;;;;;;;;;;;;;5112766;28;19928;-72
2021/09/03 14:52:34;;;;;;;;;;;;;;;;;;5112676;28;20294;-71
2021/09/03 14:55:00;;;;;;;;;;;;;;;;;;5112437;28;19923;-71
2021/09/03 14:57:26;;;;;;;;;;;;;;;;;;5113993;28;19927;-71
2021/09/03 14:59:53;;;;;;;;;;;;;;;;;;5116638;28;19930;-71
2021/09/03 15:02:19;;;;;;;;;;;;;;;;;;5116624;28;19931;-71
2021/09/03 15:04:45;;;;;;;;;;;;;;;;;;5116444;28;20397;-71
2021/09/03 15:07:11;;;;;;;;;;;;;;;;;;5116507;28;19935;-71
2021/09/03 15:09:38;;;;;;;;;;;;;;;;;;5116623;28;19923;-71
2021/09/03 15:12:04;;;;;;;;;;;;;;;;;;5116099;28;19923;-71
2021/09/03 15:14:30;;;;;;;;;;;;;;;;;;5116481;28;19924;-72
2021/09/03 15:16:57;;;;;;;;;;;;;;;;;;5116248;28;19927;-71
2021/09/03 15:19:23;;;;;;;;;;;;;;;;;;5116232;28;19924;-71
2021/09/03 15:21:49;;;;;;;;;;;;;;;;;;5116471;28;19924;-71
2021/09/03 15:24:15;;;;;;;;;;;;;;;;;;5115756;28;20361;-71
2021/09/03 15:26:42;;;;;;;;;;;;;;;;;;5116275;28;19924;-71
2021/09/03 15:29:08;;;;;;;;;;;;;;;;;;5116094;28;19923;-71
2021/09/03 15:31:34;;;;;;;;;;;;;;;;;;5116142;28;19924;-70
2021/09/03 15:34:01;;;;;;;;;;;;;;;;;;5116024;28;19924;-70
2021/09/03 15:36:27;;;;;;;;;;;;;;;;;;5116140;28;19928;-70
2021/09/03 15:38:53;;;;;;;;;;;;;;;;;;5115746;28;19924;-70
2021/09/03 15:41:19;;;;;;;;;;;;;;;;;;5115728;28;19931;-71
2021/09/03 15:43:46;;;;;;;;;;;;;;;;;;5115745;28;20286;-71
2021/09/03 15:46:12;;;;;;;;;;;;;;;;;;5115497;28;19924;-71
2021/09/03 15:48:38;;;;;;;;;;;;;;;;;;5115928;28;19924;-71
2021/09/03 15:51:05;;;;;;;;;;;;;;;;;;5115363;28;20298;-71
2021/09/03 15:53:31;;;;;;;;;;;;;;;;;;5115495;28;19934;-71
2021/09/03 15:55:57;;;;;;;;;;;;;;;;;;5115394;28;19927;-71
2021/09/03 15:58:24;;;;;;;;;;;;;;;;;;5115731;28;20301;-72
2021/09/03 16:00:50;;;;;;;;;;;;;;;;;;5115384;28;19923;-72
2021/09/03 16:03:16;;;;;;;;;;;;;;;;;;5115520;28;19927;-71
2021/09/03 16:05:43;;;;;;;;;;;;;;;;;;5115335;28;20286;-72
2021/09/03 16:08:09;;;;;;;;;;;;;;;;;;5114813;28;19931;-72
2021/09/03 16:10:35;;;;;;;;;;;;;;;;;;5115187;28;20282;-71
2021/09/03 16:13:02;;;;;;;;;;;;;;;;;;5114944;28;19924;-73
2021/09/03 16:15:28;;;;;;;;;;;;;;;;;;5115546;28;19951;-71
2021/09/03 16:17:54;;;;;;;;;;;;;;;;;;5115128;28;19923;-72
2021/09/03 16:20:20;;;;;;;;;;;;;;;;;;5115819;28;19924;-71
2021/09/03 16:22:47;;;;;;;;;;;;;;;;;;5114993;28;20293;-71
2021/09/03 16:25:13;;;;;;;;;;;;;;;;;;5114675;28;19924;-71
2021/09/03 16:27:39;;;;;;;;;;;;;;;;;;5115316;28;19931;-72
2021/09/03 16:30:06;;;;;;;;;;;;;;;;;;5114699;28;20384;-71
2021/09/03 16:32:32;;;;;;;;;;;;;;;;;;5115079;28;19931;-72
2021/09/03 16:34:59;;;;;;;;;;;;;;;;;;5114605;28;19949;-72
2021/09/03 16:37:25;;;;;;;;;;;;;;;;;;5114925;28;20290;-72
2021/09/03 16:39:52;;;;;;;;;;;;;;;;;;5114688;28;19923;-71